Time;durP1;ratioP1;P1;durP2;ratioP2;P2;SDS_P1;SDS_P2;PMS_P1;PMS_P2;Temp;Humidity;BMP_temperature;BMP_pressure;BME280_temperature;BME280_humidity;BME280_pressure;Samples;Min_cycle;Max_cycle;Signal;HPM_P1;HPM_P2
2022/09/23 00:01:31;;;;;;;4.60;4.20;;;13.20;73.40;;;;;;5039244;28;20213;-86
2022/09/23 00:03:58;;;;;;;3.93;3.63;;;13.10;72.50;;;;;;5032157;28;20184;-86
2022/09/23 00:06:26;;;;;;;3.93;3.63;;;13.00;73.90;;;;;;5037801;28;20210;-85
2022/09/23 00:08:53;;;;;;;5.53;3.63;;;13.10;73.60;;;;;;5043046;28;20202;-85
2022/09/23 00:11:22;;;;;;;3.90;3.50;;;13.00;73.90;;;;;;5044880;28;20216;-86
2022/09/23 00:13:50;;;;;;;4.23;3.83;;;13.00;74.30;;;;;;5040850;28;20207;-85
2022/09/23 00:16:24;;;;;;;4.30;3.90;;;12.90;74.10;;;;;;5039531;28;20187;-86
2022/09/23 00:18:50;;;;;;;3.60;3.30;;;13.00;73.80;;;;;;5033950;28;20190;-86
2022/09/23 00:21:17;;;;;;;5.87;3.70;;;13.00;74.00;;;;;;5039258;28;20212;-85
2022/09/23 00:23:43;;;;;;;3.70;3.40;;;13.00;74.30;;;;;;5031298;28;20185;-86
2022/09/23 00:26:11;;;;;;;4.43;3.83;;;13.00;73.80;;;;;;5034593;28;20183;-86
2022/09/23 00:28:37;;;;;;;4.10;3.70;;;13.00;73.50;;;;;;5034342;28;20196;-86
2022/09/23 00:31:05;;;;;;;4.47;3.87;;;13.10;73.50;;;;;;5039743;28;20268;-86
2022/09/23 00:33:31;;;;;;;4.37;3.73;;;13.00;73.10;;;;;;5038700;28;20194;-86
2022/09/23 00:36:00;;;;;;;3.60;3.27;;;13.00;72.90;;;;;;5039146;28;20207;-86
2022/09/23 00:38:27;;;;;;;5.77;3.63;;;13.00;72.40;;;;;;5034821;28;20194;-85
2022/09/23 00:40:53;;;;;;;3.83;3.53;;;13.00;72.60;;;;;;5038549;28;20223;-85
2022/09/23 00:43:19;;;;;;;4.30;3.33;;;12.90;73.00;;;;;;5031922;28;20204;-85
2022/09/23 00:45:49;;;;;;;4.63;3.40;;;13.00;72.60;;;;;;5039819;28;20198;-86
2022/09/23 00:48:19;;;;;;;4.07;3.63;;;12.90;72.50;;;;;;5037785;28;20749;-85
2022/09/23 00:50:49;;;;;;;4.13;3.70;;;12.90;72.50;;;;;;5041015;28;20227;-85
2022/09/23 00:53:18;;;;;;;3.43;3.13;;;12.90;72.80;;;;;;5038224;28;20218;-85
2022/09/23 00:55:51;;;;;;;3.90;3.60;;;12.80;73.20;;;;;;5040489;28;20195;-85
2022/09/23 00:58:22;;;;;;;3.53;3.30;;;12.80;72.60;;;;;;5045882;28;20194;-85
2022/09/23 01:00:48;;;;;;;4.03;3.70;;;12.80;73.00;;;;;;5036662;28;20250;-85
2022/09/23 01:03:14;;;;;;;4.10;3.70;;;12.70;73.60;;;;;;5042255;28;20197;-86
2022/09/23 01:05:41;;;;;;;3.50;3.30;;;12.80;72.60;;;;;;5040720;28;20217;-85
2022/09/23 01:08:10;;;;;;;3.80;3.30;;;12.70;72.80;;;;;;5040138;28;20566;-85
2022/09/23 01:11:10;;;;;;;3.50;3.20;;;12.70;72.80;;;;;;5039370;28;20835;-85
2022/09/23 01:14:03;;;;;;;3.63;3.33;;;12.80;72.60;;;;;;5026791;28;20199;-86
2022/09/23 01:17:02;;;;;;;3.90;3.60;;;12.70;72.40;;;;;;5030853;28;20756;-85
2022/09/23 01:19:55;;;;;;;3.73;3.43;;;12.70;72.30;;;;;;5020837;28;20203;-84
2022/09/23 01:22:42;;;;;;;3.90;3.60;;;12.70;72.20;;;;;;5030463;28;20226;-85
2022/09/23 01:25:30;;;;;;;4.10;3.70;;;12.70;71.90;;;;;;5029551;28;20210;-86
2022/09/23 01:27:59;;;;;;;4.07;3.50;;;12.60;72.30;;;;;;5036824;28;20192;-85
2022/09/23 01:30:45;;;;;;;3.40;3.20;;;12.50;72.70;;;;;;5036762;28;20191;-85
2022/09/23 01:33:33;;;;;;;3.80;3.40;;;12.50;72.80;;;;;;5004546;28;20203;-85
2022/09/23 01:36:17;;;;;;;3.53;3.23;;;12.40;73.30;;;;;;5037090;28;20245;-85
2022/09/23 01:39:12;;;;;;;3.53;3.27;;;12.40;74.30;;;;;;5036992;28;20209;-85
2022/09/23 01:42:03;;;;;;;4.10;3.60;;;12.30;74.60;;;;;;5036827;28;20213;-85
2022/09/23 01:44:39;;;;;;;4.13;3.77;;;12.40;73.60;;;;;;5032567;28;20237;-85
2022/09/23 01:47:16;;;;;;;3.53;3.23;;;12.30;73.80;;;;;;5037491;28;20209;-85
2022/09/23 01:49:47;;;;;;;3.50;3.30;;;12.30;74.00;;;;;;5034270;28;20198;-85
2022/09/23 01:52:34;;;;;;;4.53;3.13;;;12.30;73.90;;;;;;5035574;28;20220;-85
2022/09/23 01:55:04;;;;;;;3.73;3.43;;;12.30;73.60;;;;;;5033418;28;20191;-85
2022/09/23 01:57:42;;;;;;;3.70;3.40;;;12.40;73.20;;;;;;5036097;28;20185;-85
2022/09/23 02:00:13;;;;;;;4.57;3.53;;;12.20;73.20;;;;;;5037937;28;20573;-85
2022/09/23 02:02:48;;;;;;;3.90;3.40;;;12.30;73.60;;;;;;5032282;28;20282;-85
2022/09/23 02:05:43;;;;;;;3.67;3.37;;;12.20;73.30;;;;;;5035418;28;20299;-85
2022/09/23 02:08:33;;;;;;;3.90;3.53;;;12.20;73.50;;;;;;5028003;28;20665;-85
2022/09/23 02:11:07;;;;;;;3.67;3.47;;;12.20;73.20;;;;;;5036638;28;20216;-85
2022/09/23 02:14:01;;;;;;;3.73;3.43;;;12.20;73.50;;;;;;5033921;28;20195;-85
2022/09/23 02:16:46;;;;;;;5.90;3.40;;;12.20;73.50;;;;;;5036060;28;20271;-85
2022/09/23 02:19:26;;;;;;;3.97;3.67;;;12.20;73.00;;;;;;5030116;28;20197;-85
2022/09/23 02:21:59;;;;;;;3.90;3.60;;;12.00;73.10;;;;;;5040749;28;20226;-85
2022/09/23 02:24:36;;;;;;;4.30;3.57;;;11.90;74.40;;;;;;5034917;28;20212;-85
2022/09/23 02:27:14;;;;;;;3.60;3.30;;;12.00;74.90;;;;;;5033864;28;20197;-85
2022/09/23 02:29:39;;;;;;;3.60;3.30;;;12.00;74.50;;;;;;5036584;28;20615;-86
2022/09/23 02:32:16;;;;;;;3.57;3.33;;;12.00;74.10;;;;;;5036460;28;20206;-85
2022/09/23 02:34:49;;;;;;;4.10;3.80;;;12.00;73.80;;;;;;5041938;28;20537;-85
2022/09/23 02:37:46;;;;;;;4.23;3.10;;;11.90;73.40;;;;;;5050525;28;20256;-86
2022/09/23 02:40:30;;;;;;;3.27;3.07;;;12.00;73.70;;;;;;5038937;28;20197;-85
2022/09/23 02:43:18;;;;;;;4.10;3.50;;;11.90;73.60;;;;;;5039461;28;20196;-85
2022/09/23 02:45:48;;;;;;;3.47;3.17;;;11.80;73.50;;;;;;5032235;28;20582;-85
2022/09/23 02:48:34;;;;;;;3.80;3.50;;;11.80;73.90;;;;;;5033607;28;20186;-85
2022/09/23 02:51:02;;;;;;;4.00;3.70;;;11.80;74.20;;;;;;5030875;28;20209;-85
2022/09/23 02:53:29;;;;;;;3.03;2.83;;;11.80;74.30;;;;;;5035889;28;20182;-85
2022/09/23 02:55:55;;;;;;;3.50;3.20;;;11.80;74.00;;;;;;5033569;28;20216;-85
2022/09/23 02:58:21;;;;;;;3.43;3.13;;;11.80;73.40;;;;;;5030123;28;20200;-86
2022/09/23 03:01:14;;;;;;;3.70;3.00;;;11.80;73.40;;;;;;5035278;28;20213;-85
2022/09/23 03:03:58;;;;;;;3.43;3.23;;;11.80;73.60;;;;;;5033404;28;20210;-85
2022/09/23 03:06:43;;;;;;;3.90;3.60;;;11.80;73.60;;;;;;5035857;28;20188;-84
2022/09/23 03:09:17;;;;;;;4.77;3.10;;;11.70;74.20;;;;;;5035946;28;20207;-85
2022/09/23 03:11:49;;;;;;;3.63;3.33;;;11.70;74.00;;;;;;5033234;28;20224;-85
2022/09/23 03:14:31;;;;;;;4.90;3.30;;;11.70;74.30;;;;;;5031544;28;20227;-85
2022/09/23 03:17:08;;;;;;;3.80;3.50;;;11.70;73.90;;;;;;5031769;28;20549;-85
2022/09/23 03:19:40;;;;;;;4.00;3.70;;;11.70;74.00;;;;;;5028489;28;20200;-85
2022/09/23 03:22:24;;;;;;;3.90;3.60;;;11.60;73.20;;;;;;5030602;28;20209;-85
2022/09/23 03:24:51;;;;;;;4.07;3.73;;;11.50;75.00;;;;;;5033811;28;20184;-85
2022/09/23 03:27:20;;;;;;;4.53;4.13;;;11.50;74.50;;;;;;5030940;28;20181;-85
2022/09/23 03:29:52;;;;;;;4.33;3.97;;;11.40;74.00;;;;;;5026891;28;20269;-85
2022/09/23 03:32:21;;;;;;;4.30;3.67;;;11.20;75.80;;;;;;5026054;28;20223;-85
2022/09/23 03:34:51;;;;;;;7.37;3.63;;;11.20;75.90;;;;;;5034600;28;20749;-85
2022/09/23 03:37:43;;;;;;;9.63;3.83;;;11.30;75.90;;;;;;5031113;28;20263;-86
2022/09/23 03:40:14;;;;;;;7.83;4.00;;;11.30;75.40;;;;;;5039669;28;20271;-85
2022/09/23 03:42:40;;;;;;;5.30;3.53;;;11.30;75.50;;;;;;5030145;28;20264;-85
2022/09/23 03:45:12;;;;;;;8.67;3.90;;;11.40;75.10;;;;;;5029110;28;20192;-85
2022/09/23 03:47:38;;;;;;;6.00;3.70;;;11.40;75.30;;;;;;5034525;28;20248;-85
2022/09/23 03:50:05;;;;;;;3.97;3.57;;;11.30;74.50;;;;;;5036025;28;20189;-85
2022/09/23 03:52:31;;;;;;;4.20;3.70;;;11.40;74.80;;;;;;5030460;28;20263;-85
2022/09/23 03:54:57;;;;;;;3.60;3.30;;;11.40;74.40;;;;;;5035034;28;20190;-85
2022/09/23 03:57:23;;;;;;;4.20;3.70;;;11.40;74.70;;;;;;5027233;28;20200;-85
2022/09/23 03:59:49;;;;;;;3.60;3.30;;;11.30;74.40;;;;;;5033165;28;20197;-85
2022/09/23 04:02:16;;;;;;;4.07;3.60;;;11.30;74.50;;;;;;5034918;28;20580;-85
2022/09/23 04:04:42;;;;;;;3.50;3.23;;;11.20;75.70;;;;;;5034204;28;20281;-85
2022/09/23 04:07:08;;;;;;;3.73;3.43;;;11.20;74.80;;;;;;5030179;28;20568;-85
2022/09/23 04:09:34;;;;;;;3.93;3.30;;;11.10;75.30;;;;;;5030828;28;20200;-85
2022/09/23 04:12:00;;;;;;;3.90;3.60;;;11.20;74.80;;;;;;5032724;28;20213;-85
2022/09/23 04:14:26;;;;;;;3.50;3.20;;;11.20;74.40;;;;;;5035747;28;20205;-85
2022/09/23 04:16:52;;;;;;;3.70;3.33;;;11.10;74.90;;;;;;5030747;28;20189;-85
2022/09/23 04:19:18;;;;;;;3.77;3.47;;;11.10;75.40;;;;;;5029165;28;20212;-85
2022/09/23 04:21:44;;;;;;;3.90;3.50;;;11.10;75.30;;;;;;5036767;28;20254;-85
2022/09/23 04:24:10;;;;;;;4.13;3.80;;;11.10;74.90;;;;;;5029397;28;20181;-84
2022/09/23 04:26:37;;;;;;;3.83;3.30;;;11.00;74.30;;;;;;5034628;28;20267;-85
2022/09/23 04:29:04;;;;;;;4.20;3.40;;;11.00;75.60;;;;;;5035666;28;20208;-85
2022/09/23 04:31:31;;;;;;;3.67;3.47;;;11.00;74.60;;;;;;5030298;28;20217;-85
2022/09/23 04:33:57;;;;;;;4.10;3.70;;;10.90;74.40;;;;;;5033338;28;20188;-85
2022/09/23 04:36:23;;;;;;;3.77;3.47;;;10.80;76.20;;;;;;5042759;28;20211;-85
2022/09/23 04:38:49;;;;;;;3.43;3.23;;;10.90;76.10;;;;;;5043177;28;20217;-85
2022/09/23 04:41:17;;;;;;;4.40;3.60;;;10.90;76.40;;;;;;5037336;28;20263;-85
2022/09/23 04:43:43;;;;;;;4.00;3.60;;;10.90;76.10;;;;;;5037454;28;20192;-85
2022/09/23 04:46:11;;;;;;;3.60;3.37;;;10.90;75.90;;;;;;5030377;28;20200;-85
2022/09/23 04:48:38;;;;;;;4.10;3.67;;;11.00;75.60;;;;;;5030188;28;20208;-85
2022/09/23 04:51:19;;;;;;;3.50;3.20;;;10.90;75.50;;;;;;5037268;28;20246;-85
2022/09/23 04:53:46;;;;;;;4.27;3.90;;;11.00;74.90;;;;;;5037164;28;20214;-85
2022/09/23 04:56:27;;;;;;;3.80;3.50;;;11.00;75.20;;;;;;5029385;28;20192;-85
2022/09/23 04:58:53;;;;;;;4.03;3.33;;;10.90;73.90;;;;;;5031165;28;20192;-85
2022/09/23 05:01:25;;;;;;;5.23;3.80;;;10.60;75.70;;;;;;5032480;28;20229;-85
2022/09/23 05:03:57;;;;;;;5.17;3.53;;;10.60;77.20;;;;;;5031137;28;20179;-85
2022/09/23 05:06:23;;;;;;;3.87;3.57;;;10.60;77.40;;;;;;5031028;28;20199;-85
2022/09/23 05:08:51;;;;;;;5.73;3.90;;;10.70;77.10;;;;;;5031599;28;20208;-85
2022/09/23 05:11:17;;;;;;;4.80;4.07;;;10.80;77.40;;;;;;5031375;28;20271;-85
2022/09/23 05:13:47;;;;;;;4.20;3.80;;;10.80;76.90;;;;;;5031770;28;20227;-85
2022/09/23 05:16:15;;;;;;;4.00;3.60;;;10.80;77.20;;;;;;5025869;28;20607;-85
2022/09/23 05:18:42;;;;;;;5.23;4.50;;;10.80;77.10;;;;;;5029995;28;20227;-85
2022/09/23 05:21:18;;;;;;;5.43;4.93;;;10.80;77.70;;;;;;5032796;28;20212;-85
2022/09/23 05:23:55;;;;;;;5.27;4.67;;;10.80;78.40;;;;;;5031427;28;20295;-85
2022/09/23 05:26:26;;;;;;;5.70;5.17;;;10.90;79.10;;;;;;5040452;28;20190;-85
2022/09/23 05:28:53;;;;;;;5.97;5.27;;;10.90;79.20;;;;;;5047719;28;20299;-86
2022/09/23 05:31:21;;;;;;;7.87;5.67;;;10.90;79.20;;;;;;5035344;28;20216;-85
2022/09/23 05:33:53;;;;;;;10.53;5.33;;;11.00;79.80;;;;;;5042498;28;20196;-85
2022/09/23 05:36:20;;;;;;;6.80;5.43;;;10.90;79.60;;;;;;5035198;28;20188;-85
2022/09/23 05:38:48;;;;;;;4.93;4.53;;;10.80;78.10;;;;;;5035406;28;20196;-85
2022/09/23 05:41:14;;;;;;;5.53;5.03;;;10.70;80.20;;;;;;5031143;28;20223;-85
2022/09/23 05:43:40;;;;;;;5.80;4.97;;;10.70;80.40;;;;;;5030930;28;20227;-85
2022/09/23 05:46:10;;;;;;;6.43;5.43;;;10.70;80.80;;;;;;5032114;28;20193;-86
2022/09/23 05:48:37;;;;;;;4.93;4.53;;;10.70;81.10;;;;;;5036952;28;20289;-86
2022/09/23 05:51:03;;;;;;;10.20;9.20;;;10.80;82.00;;;;;;5033195;28;20466;-85
2022/09/23 05:53:29;;;;;;;14.03;12.70;;;10.80;81.80;;;;;;5032431;28;20265;-86
2022/09/23 05:55:56;;;;;;;13.03;11.20;;;10.90;81.40;;;;;;5032306;28;20660;-86
2022/09/23 05:58:23;;;;;;;7.67;6.97;;;10.90;80.70;;;;;;5032419;28;20257;-86
2022/09/23 06:00:49;;;;;;;7.73;6.93;;;11.00;80.90;;;;;;5032734;28;20208;-86
2022/09/23 06:03:19;;;;;;;5.97;5.47;;;11.10;81.00;;;;;;5032821;28;20192;-86
2022/09/23 06:05:45;;;;;;;7.03;6.30;;;11.20;80.40;;;;;;5036605;28;20227;-85
2022/09/23 06:08:11;;;;;;;6.90;5.30;;;11.10;80.60;;;;;;5033011;28;20200;-86
2022/09/23 06:10:42;;;;;;;6.70;6.10;;;11.10;81.20;;;;;;5032995;28;20213;-85
2022/09/23 06:13:08;;;;;;;6.70;5.97;;;11.20;81.20;;;;;;5041614;28;20204;-86
2022/09/23 06:15:35;;;;;;;5.60;5.10;;;11.30;81.60;;;;;;5039547;28;20234;-85
2022/09/23 06:18:01;;;;;;;7.67;6.83;;;11.30;81.70;;;;;;5036043;28;20478;-85
2022/09/23 06:20:27;;;;;;;6.37;5.77;;;11.40;81.40;;;;;;5039482;28;20211;-86
2022/09/23 06:22:53;;;;;;;5.97;5.47;;;11.50;81.10;;;;;;5041062;28;20184;-84
2022/09/23 06:25:21;;;;;;;11.33;6.33;;;11.60;80.90;;;;;;5036769;28;20200;-85
2022/09/23 06:27:57;;;;;;;5.83;5.27;;;11.60;80.60;;;;;;5037618;28;20189;-85
2022/09/23 06:30:25;;;;;;;6.00;5.50;;;11.60;80.50;;;;;;5037861;28;20191;-85
2022/09/23 06:32:52;;;;;;;6.47;5.70;;;11.60;81.10;;;;;;5034082;28;20244;-85
2022/09/23 06:35:24;;;;;;;6.93;6.17;;;11.50;82.30;;;;;;5035051;28;20193;-85
2022/09/23 06:37:49;;;;;;;6.03;5.63;;;11.50;83.70;;;;;;5037489;28;20217;-86
2022/09/23 06:40:16;;;;;;;5.83;5.43;;;11.50;84.40;;;;;;5036463;28;20200;-85
2022/09/23 06:42:42;;;;;;;5.53;5.03;;;11.60;84.20;;;;;;5036177;28;20319;-85
2022/09/23 06:45:11;;;;;;;5.50;5.10;;;11.60;84.30;;;;;;5037883;28;20206;-85
2022/09/23 06:47:38;;;;;;;9.73;5.87;;;11.60;85.30;;;;;;5031598;28;20277;-85
2022/09/23 06:50:05;;;;;;;5.57;5.07;;;11.50;86.60;;;;;;5033007;28;20253;-86
2022/09/23 06:52:31;;;;;;;5.60;5.10;;;11.60;86.20;;;;;;5036583;28;20213;-85
2022/09/23 06:54:56;;;;;;;5.90;5.30;;;11.70;86.20;;;;;;5031609;28;20185;-86
2022/09/23 06:57:23;;;;;;;5.20;4.80;;;11.80;85.80;;;;;;5032483;28;20205;-86
2022/09/23 06:59:49;;;;;;;5.40;4.90;;;11.70;85.40;;;;;;5037628;28;20200;-86
2022/09/23 07:02:14;;;;;;;6.07;5.50;;;11.90;85.50;;;;;;5045852;28;20220;-86
2022/09/23 07:04:40;;;;;;;5.80;5.40;;;11.90;85.10;;;;;;5036240;28;20190;-86
2022/09/23 07:07:06;;;;;;;6.57;5.23;;;11.90;84.90;;;;;;5036484;28;20193;-86
2022/09/23 07:09:31;;;;;;;6.87;5.17;;;12.00;83.70;;;;;;5028475;28;20206;-87
2022/09/23 07:11:57;;;;;;;6.83;5.43;;;12.10;83.80;;;;;;5031772;28;20700;-87
2022/09/23 07:14:23;;;;;;;5.93;5.20;;;12.20;83.60;;;;;;5036471;28;20197;-85
2022/09/23 07:16:49;;;;;;;5.97;5.57;;;11.90;83.90;;;;;;5037596;28;20192;-86
2022/09/23 07:19:16;;;;;;;7.33;5.50;;;11.70;85.00;;;;;;5035353;28;20197;-87
2022/09/23 07:21:41;;;;;;;5.80;5.30;;;11.60;83.80;;;;;;5036048;28;20229;-86
2022/09/23 07:24:07;;;;;;;5.47;4.90;;;11.40;85.80;;;;;;5032563;28;20197;-86
2022/09/23 07:26:33;;;;;;;6.57;5.93;;;11.20;85.80;;;;;;5038018;28;20216;-87
2022/09/23 07:29:03;;;;;;;5.77;4.83;;;11.30;86.10;;;;;;5035234;28;20193;-88
2022/09/23 07:31:34;;;;;;;6.60;6.10;;;11.40;86.50;;;;;;5034692;28;20228;-87
2022/09/23 07:34:00;;;;;;;5.60;5.20;;;11.50;86.10;;;;;;5034767;28;20231;-85
2022/09/23 07:36:27;;;;;;;8.03;6.70;;;11.60;86.00;;;;;;5035812;28;20572;-87
2022/09/23 07:38:59;;;;;;;5.80;5.30;;;11.80;86.30;;;;;;5037007;28;20189;-87
2022/09/23 07:41:26;;;;;;;6.83;5.93;;;11.90;84.70;;;;;;5036306;28;20219;-86
2022/09/23 07:43:55;;;;;;;6.17;5.67;;;12.10;85.00;;;;;;5037645;28;20200;-88
2022/09/23 07:46:21;;;;;;;6.57;5.97;;;12.30;83.10;;;;;;5030300;28;20196;-87
2022/09/23 07:48:47;;;;;;;6.47;5.90;;;12.40;83.90;;;;;;5035878;28;20705;-87
2022/09/23 07:51:19;;;;;;;8.20;6.10;;;12.30;84.60;;;;;;5036836;28;20657;-87
2022/09/23 07:53:50;;;;;;;6.03;5.63;;;12.40;84.70;;;;;;5036571;28;20196;-86
2022/09/23 07:56:18;;;;;;;6.47;5.70;;;12.50;85.10;;;;;;5036211;28;20193;-86
2022/09/23 07:58:45;;;;;;;7.10;6.53;;;12.50;84.80;;;;;;5034400;28;20684;-87
2022/09/23 08:01:11;;;;;;;7.17;6.47;;;12.40;85.20;;;;;;5038847;28;20545;-86
2022/09/23 08:03:38;;;;;;;6.80;6.10;;;12.30;86.40;;;;;;5037937;28;20384;-86
2022/09/23 08:06:09;;;;;;;7.27;6.40;;;12.30;87.10;;;;;;5035355;28;20186;-87
2022/09/23 08:08:39;;;;;;;7.27;6.33;;;12.10;86.70;;;;;;5033983;28;20207;-87
2022/09/23 08:11:07;;;;;;;7.50;6.90;;;11.80;87.80;;;;;;5033827;28;20215;-86
2022/09/23 08:13:33;;;;;;;8.07;7.37;;;11.90;87.70;;;;;;5034831;28;20193;-87
2022/09/23 08:15:59;;;;;;;8.13;7.40;;;11.90;87.70;;;;;;5045850;28;20203;-83
2022/09/23 08:18:25;;;;;;;9.20;8.40;;;11.80;89.20;;;;;;5052333;28;20179;-84
2022/09/23 08:20:51;;;;;;;10.63;8.47;;;12.00;89.10;;;;;;5042631;28;20232;-85
2022/09/23 08:23:18;;;;;;;9.20;8.33;;;12.00;89.40;;;;;;5034846;28;20293;-85
2022/09/23 08:25:46;;;;;;;9.80;7.70;;;12.10;89.10;;;;;;5036684;28;20223;-87
2022/09/23 08:28:15;;;;;;;8.10;7.30;;;12.20;88.10;;;;;;5037004;28;20192;-87
2022/09/23 08:30:47;;;;;;;8.77;8.07;;;12.40;87.50;;;;;;5036156;28;20231;-85
2022/09/23 08:33:13;;;;;;;8.93;8.13;;;12.60;87.00;;;;;;5028062;28;20249;-85
2022/09/23 08:35:40;;;;;;;8.60;7.77;;;12.30;88.80;;;;;;5030559;28;20201;-85
2022/09/23 08:38:06;;;;;;;7.63;7.03;;;12.30;88.70;;;;;;5033152;28;20188;-84
2022/09/23 08:40:38;;;;;;;8.80;8.07;;;12.30;88.10;;;;;;5032493;28;20216;-88
2022/09/23 08:43:17;;;;;;;8.60;7.90;;;12.50;89.00;;;;;;5032476;28;20251;-87
2022/09/23 08:45:43;;;;;;;7.80;7.10;;;12.60;87.10;;;;;;5036265;28;20169;-86
2022/09/23 08:48:19;;;;;;;7.90;7.20;;;12.70;86.30;;;;;;5036983;28;20235;-86
2022/09/23 08:50:53;;;;;;;7.83;7.07;;;13.00;85.60;;;;;;5033830;28;20216;-87
2022/09/23 08:53:34;;;;;;;7.40;6.70;;;13.20;83.10;;;;;;5035031;28;20521;-86
2022/09/23 08:56:12;;;;;;;8.17;7.37;;;13.30;83.90;;;;;;5036500;28;20201;-86
2022/09/23 08:58:44;;;;;;;6.63;6.13;;;13.30;83.70;;;;;;5035618;28;20193;-84
2022/09/23 09:01:28;;;;;;;7.80;6.17;;;13.60;81.00;;;;;;5028308;28;20630;-87
2022/09/23 09:04:21;;;;;;;7.27;6.60;;;13.80;81.70;;;;;;5030125;28;20204;-86
2022/09/23 09:07:05;;;;;;;7.80;7.07;;;13.80;80.60;;;;;;5012787;28;20213;-87
2022/09/23 09:09:56;;;;;;;7.93;7.23;;;13.90;80.20;;;;;;5034771;28;20566;-87
2022/09/23 09:12:37;;;;;;;7.13;6.43;;;14.20;78.70;;;;;;5027448;28;20350;-86
2022/09/23 09:15:12;;;;;;;7.63;6.93;;;14.50;77.40;;;;;;5029920;28;20181;-86
2022/09/23 09:17:47;;;;;;;7.80;7.00;;;14.60;76.80;;;;;;5028801;28;20207;-87
2022/09/23 09:20:27;;;;;;;7.50;6.90;;;14.60;75.90;;;;;;5029368;28;20237;-86
2022/09/23 09:22:59;;;;;;;7.83;7.17;;;14.70;78.00;;;;;;5028753;28;20222;-87
2022/09/23 09:25:49;;;;;;;7.03;6.53;;;14.90;76.30;;;;;;5028384;28;20618;-85
2022/09/23 09:28:17;;;;;;;8.47;7.47;;;15.20;74.70;;;;;;5031314;28;20238;-87
2022/09/23 09:30:47;;;;;;;7.60;6.90;;;15.20;75.40;;;;;;5029067;28;20266;-87
2022/09/23 09:33:16;;;;;;;7.20;6.60;;;15.60;73.20;;;;;;5033340;28;20224;-86
2022/09/23 09:36:00;;;;;;;8.33;6.73;;;15.80;71.00;;;;;;5024373;28;20197;-87
2022/09/23 09:38:26;;;;;;;8.13;7.43;;;15.80;71.90;;;;;;5024881;28;20181;-88
2022/09/23 09:40:54;;;;;;;8.00;7.17;;;15.70;73.50;;;;;;5033130;28;20735;-86
2022/09/23 09:43:22;;;;;;;7.80;7.10;;;15.80;71.40;;;;;;5032307;28;20187;-88
2022/09/23 09:46:12;;;;;;;7.70;7.00;;;16.00;70.60;;;;;;5029726;28;20191;-87
2022/09/23 09:48:49;;;;;;;8.27;7.57;;;16.30;70.10;;;;;;5031706;28;20576;-86
2022/09/23 09:51:26;;;;;;;7.47;6.87;;;16.50;69.00;;;;;;5035206;28;20269;-87
2022/09/23 09:53:53;;;;;;;6.37;5.87;;;16.60;68.20;;;;;;5036095;28;20218;-87
2022/09/23 09:56:28;;;;;;;7.80;6.97;;;16.80;66.80;;;;;;5036322;28;20193;-87
2022/09/23 09:58:59;;;;;;;7.37;6.60;;;16.40;67.40;;;;;;5038869;28;20176;-87
2022/09/23 10:01:30;;;;;;;7.03;6.53;;;16.70;67.70;;;;;;5044769;28;20230;-87
2022/09/23 10:03:59;;;;;;;7.20;6.60;;;16.80;68.70;;;;;;5039589;28;20194;-87
2022/09/23 10:06:31;;;;;;;9.10;6.70;;;17.10;66.30;;;;;;5037985;28;20202;-87
2022/09/23 10:09:20;;;;;;;7.83;6.83;;;17.50;64.60;;;;;;5039279;28;20199;-88
2022/09/23 10:12:23;;;;;;;6.70;6.10;;;17.80;63.30;;;;;;5038469;28;20231;-88
2022/09/23 10:14:54;;;;;;;7.82;6.68;;;17.90;63.80;;;;;;4989918;28;20207;-86
2022/09/23 10:17:23;;;;;;;6.65;6.05;;;17.70;63.70;;;;;;5029343;28;20219;-86
2022/09/23 10:19:59;;;;;;;15.82;14.02;;;18.00;61.30;;;;;;5030195;28;20240;-86
2022/09/23 10:22:28;;;;;;;6.32;5.82;;;18.30;59.30;;;;;;5038358;28;20226;-87
2022/09/23 10:24:58;;;;;;;11.55;10.55;;;18.40;60.10;;;;;;5034018;28;20307;-87
2022/09/23 10:27:30;;;;;;;9.57;8.68;;;18.70;58.00;;;;;;5036615;28;20197;-87
2022/09/23 10:29:58;;;;;;;29.83;26.05;;;19.00;57.90;;;;;;5038847;28;20227;-87
2022/09/23 10:32:39;;;;;;;64.18;51.42;;;19.20;56.30;;;;;;5039833;28;20240;-85
2022/09/23 10:35:07;;;;;;;6.15;5.65;;;19.30;53.60;;;;;;5034329;28;20231;-87
2022/09/23 10:37:48;;;;;;;6.05;5.45;;;18.60;56.30;;;;;;5040434;28;20184;-87
2022/09/23 10:46:46;;;;;;;5.93;5.50;;;18.60;57.30;;;;;;5041507;28;20180;-88
2022/09/23 10:49:30;;;;;;;5.25;4.85;;;18.70;57.30;;;;;;5033148;28;20189;-88
2022/09/23 10:52:24;;;;;;;5.57;5.13;;;19.10;57.00;;;;;;5034110;28;20269;-85
2022/09/23 10:55:04;;;;;;;5.68;5.18;;;19.10;55.80;;;;;;5041089;28;20189;-86
2022/09/23 10:57:45;;;;;;;6.40;5.53;;;19.60;54.50;;;;;;5036171;28;20209;-85
2022/09/23 11:00:45;;;;;;;5.43;4.97;;;19.80;54.50;;;;;;5022917;28;20232;-86
2022/09/23 11:03:32;;;;;;;5.47;5.00;;;20.20;52.60;;;;;;5049648;28;20241;-91
2022/09/23 11:06:24;;;;;;;8.43;5.47;;;20.50;51.20;;;;;;5057686;28;20191;-92
2022/09/23 11:09:26;;;;;;;5.20;4.80;;;20.20;50.60;;;;;;5047460;28;20202;-85
2022/09/23 11:12:32;;;;;;;5.30;4.80;;;20.70;49.30;;;;;;5024373;28;20238;-85
2022/09/23 11:15:22;;;;;;;5.03;4.65;;;21.00;49.30;;;;;;5023621;28;20236;-86
2022/09/23 11:18:25;;;;;;;5.70;5.22;;;21.20;46.90;;;;;;5037642;28;20180;-88
2022/09/23 11:21:06;;;;;;;4.85;4.45;;;20.90;48.40;;;;;;5036289;28;20196;-87
2022/09/23 11:23:50;;;;;;;6.43;4.90;;;21.00;48.70;;;;;;5033348;28;20436;-85
2022/09/23 11:26:34;;;;;;;4.97;4.47;;;21.40;47.30;;;;;;5033355;28;20545;-85
2022/09/23 11:29:41;;;;;;;5.55;4.60;;;21.60;47.90;;;;;;5038120;28;20188;-86
2022/09/23 11:32:31;;;;;;;5.28;4.78;;;21.70;46.60;;;;;;5036603;28;20668;-86
2022/09/23 11:35:20;;;;;;;5.88;4.88;;;21.90;46.10;;;;;;5038318;28;20214;-86
2022/09/23 11:37:55;;;;;;;5.05;4.65;;;21.80;48.60;;;;;;5040151;28;20173;-85
2022/09/23 11:40:35;;;;;;;5.63;5.10;;;22.20;46.30;;;;;;5040264;28;20223;-86
2022/09/23 11:43:24;;;;;;;4.43;4.13;;;22.30;44.10;;;;;;5041229;28;20208;-88
2022/09/23 11:46:13;;;;;;;4.72;4.25;;;22.30;43.60;;;;;;5040836;28;20193;-85
2022/09/23 11:48:56;;;;;;;4.63;4.20;;;22.70;42.60;;;;;;5044558;28;20193;-88
2022/09/23 11:51:35;;;;;;;5.20;4.72;;;22.90;41.60;;;;;;5036497;28;20216;-87
2022/09/23 11:54:17;;;;;;;5.03;4.53;;;22.10;42.00;;;;;;5028536;28;20197;-85
2022/09/23 11:56:57;;;;;;;5.10;4.18;;;21.80;42.80;;;;;;5038590;28;20185;-87
2022/09/23 11:59:40;;;;;;;6.00;3.75;;;21.90;42.10;;;;;;5029439;28;20212;-87
2022/09/23 12:02:28;;;;;;;4.25;3.83;;;22.40;42.60;;;;;;5034516;28;20221;-88
2022/09/23 12:05:03;;;;;;;4.10;3.70;;;22.70;41.20;;;;;;5032107;28;20194;-88
2022/09/23 12:07:47;;;;;;;4.70;4.30;;;22.30;43.70;;;;;;5039489;28;20220;-87
2022/09/23 12:10:15;;;;;;;3.58;3.33;;;21.80;43.00;;;;;;5037188;28;20188;-87
2022/09/23 12:13:26;;;;;;;4.00;3.63;;;21.50;44.00;;;;;;5036817;28;20285;-87
2022/09/23 12:16:26;;;;;;;4.15;3.72;;;21.90;43.50;;;;;;5039537;28;20220;-89
2022/09/23 12:19:03;;;;;;;4.07;3.78;;;21.30;41.60;;;;;;5041605;28;20185;-87
2022/09/23 12:21:44;;;;;;;3.88;3.50;;;21.50;44.70;;;;;;5041520;28;20270;-86
2022/09/23 12:24:31;;;;;;;4.20;3.63;;;22.30;41.50;;;;;;5041756;28;20177;-86
2022/09/23 12:27:03;;;;;;;5.88;4.15;;;22.30;41.80;;;;;;5044972;28;20203;-86
2022/09/23 12:29:31;;;;;;;4.15;3.78;;;22.00;41.30;;;;;;5043495;28;20544;-87
2022/09/23 12:31:57;;;;;;;3.78;3.40;;;21.80;43.30;;;;;;5044817;28;20263;-86
2022/09/23 12:34:47;;;;;;;3.97;3.67;;;21.90;41.90;;;;;;5045369;28;20545;-90
2022/09/23 12:37:38;;;;;;;5.20;3.90;;;21.90;41.10;;;;;;5025761;28;20166;-89
2022/09/23 12:40:18;;;;;;;5.10;3.90;;;22.20;42.40;;;;;;5038934;28;20216;-86
2022/09/23 12:42:46;;;;;;;4.07;3.72;;;22.00;42.70;;;;;;5033757;28;20743;-86
2022/09/23 12:45:31;;;;;;;4.25;3.95;;;22.10;42.50;;;;;;5039478;28;20200;-86
2022/09/23 12:48:03;;;;;;;4.47;4.07;;;22.70;41.30;;;;;;5032475;28;20190;-88
2022/09/23 12:50:47;;;;;;;4.47;3.70;;;22.60;40.60;;;;;;5032183;28;20184;-89
2022/09/23 12:53:45;;;;;;;4.30;4.00;;;22.60;41.40;;;;;;5026808;28;20212;-86
2022/09/23 12:56:16;;;;;;;4.20;3.67;;;23.70;38.50;;;;;;4995289;28;20201;-88
2022/09/23 12:58:41;;;;;;;4.88;4.00;;;23.90;38.00;;;;;;5038573;28;20185;-87
2022/09/23 13:01:19;;;;;;;4.53;4.13;;;23.40;38.70;;;;;;5037326;28;20731;-88
2022/09/23 13:07:07;;;;;;;4.43;3.92;;;22.20;42.50;;;;;;5039236;28;20207;-87
2022/09/23 13:09:46;;;;;;;4.72;3.90;;;22.70;41.10;;;;;;5049952;28;20549;-86
2022/09/23 13:12:28;;;;;;;4.28;3.88;;;22.70;40.70;;;;;;5043634;28;20736;-87
2022/09/23 13:14:59;;;;;;;4.40;4.10;;;22.80;40.60;;;;;;5045318;28;20495;-87
2022/09/23 13:17:35;;;;;;;4.32;3.92;;;22.80;41.20;;;;;;5043629;28;20285;-86
2022/09/23 13:20:05;;;;;;;4.50;4.10;;;23.20;39.60;;;;;;5042412;28;20184;-87
2022/09/23 13:22:47;;;;;;;4.85;4.40;;;23.20;40.10;;;;;;5057705;28;20224;-89
2022/09/23 13:25:20;;;;;;;7.93;4.65;;;23.30;41.40;;;;;;5051896;28;20184;-86
2022/09/23 13:27:50;;;;;;;5.57;4.00;;;22.70;42.10;;;;;;5046147;28;20193;-85
2022/09/23 13:30:22;;;;;;;4.68;4.15;;;22.60;45.00;;;;;;5043145;28;20188;-86